sensor_id;sensor_type;location;lat;lon;timestamp;P1;durP1;ratioP1;P2;durP2;ratioP2
68938;SDS011;59064;45.294;11.816;2024-02-26T00:01:28;23.10;;;16.90;;
68938;SDS011;59064;45.294;11.816;2024-02-26T00:03:59;25.40;;;17.70;;
68938;SDS011;59064;45.294;11.816;2024-02-26T00:06:27;24.40;;;14.20;;
68938;SDS011;59064;45.294;11.816;2024-02-26T00:08:55;28.00;;;19.20;;
68938;SDS011;59064;45.294;11.816;2024-02-26T00:11:22;30.70;;;19.80;;
68938;SDS011;59064;45.294;11.816;2024-02-26T00:13:48;28.30;;;20.10;;
68938;SDS011;59064;45.294;11.816;2024-02-26T00:16:14;32.70;;;20.70;;
68938;SDS011;59064;45.294;11.816;2024-02-26T00:18:40;26.40;;;17.80;;
68938;SDS011;59064;45.294;11.816;2024-02-26T00:21:06;33.80;;;20.30;;
68938;SDS011;59064;45.294;11.816;2024-02-26T00:23:31;31.20;;;21.70;;
68938;SDS011;59064;45.294;11.816;2024-02-26T00:25:57;31.10;;;22.60;;
68938;SDS011;59064;45.294;11.816;2024-02-26T00:28:24;33.00;;;21.80;;
68938;SDS011;59064;45.294;11.816;2024-02-26T00:30:50;34.70;;;22.80;;
68938;SDS011;59064;45.294;11.816;2024-02-26T00:33:21;28.70;;;18.00;;
68938;SDS011;59064;45.294;11.816;2024-02-26T00:35:48;37.30;;;21.70;;
68938;SDS011;59064;45.294;11.816;2024-02-26T00:38:14;28.80;;;18.90;;
68938;SDS011;59064;45.294;11.816;2024-02-26T00:40:40;34.20;;;22.40;;
68938;SDS011;59064;45.294;11.816;2024-02-26T00:43:07;32.10;;;21.40;;
68938;SDS011;59064;45.294;11.816;2024-02-26T00:45:33;33.50;;;22.80;;
68938;SDS011;59064;45.294;11.816;2024-02-26T00:47:59;28.70;;;20.80;;
68938;SDS011;59064;45.294;11.816;2024-02-26T00:50:36;33.20;;;22.50;;
68938;SDS011;59064;45.294;11.816;2024-02-26T00:53:02;31.60;;;22.70;;
68938;SDS011;59064;45.294;11.816;2024-02-26T00:55:27;33.50;;;20.90;;
68938;SDS011;59064;45.294;11.816;2024-02-26T00:57:53;27.60;;;19.00;;
68938;SDS011;59064;45.294;11.816;2024-02-26T01:00:18;28.80;;;19.80;;
68938;SDS011;59064;45.294;11.816;2024-02-26T01:02:44;27.50;;;20.10;;
68938;SDS011;59064;45.294;11.816;2024-02-26T01:05:13;27.10;;;17.10;;
68938;SDS011;59064;45.294;11.816;2024-02-26T01:07:39;24.20;;;17.40;;
68938;SDS011;59064;45.294;11.816;2024-02-26T01:10:05;29.30;;;21.30;;
68938;SDS011;59064;45.294;11.816;2024-02-26T01:12:34;26.60;;;20.10;;
68938;SDS011;59064;45.294;11.816;2024-02-26T01:15:01;24.10;;;15.30;;
68938;SDS011;59064;45.294;11.816;2024-02-26T01:17:28;24.90;;;18.30;;
68938;SDS011;59064;45.294;11.816;2024-02-26T01:19:54;26.60;;;20.30;;
68938;SDS011;59064;45.294;11.816;2024-02-26T01:22:20;25.50;;;18.90;;
68938;SDS011;59064;45.294;11.816;2024-02-26T01:24:46;25.30;;;19.40;;
68938;SDS011;59064;45.294;11.816;2024-02-26T01:27:11;24.00;;;19.20;;
68938;SDS011;59064;45.294;11.816;2024-02-26T01:29:37;27.30;;;19.30;;
68938;SDS011;59064;45.294;11.816;2024-02-26T01:32:03;24.50;;;19.00;;
68938;SDS011;59064;45.294;11.816;2024-02-26T01:34:31;23.50;;;17.40;;
68938;SDS011;59064;45.294;11.816;2024-02-26T01:36:57;24.20;;;18.00;;
68938;SDS011;59064;45.294;11.816;2024-02-26T01:39:23;22.50;;;16.30;;
68938;SDS011;59064;45.294;11.816;2024-02-26T01:41:49;24.80;;;17.90;;
68938;SDS011;59064;45.294;11.816;2024-02-26T01:44:15;22.60;;;17.80;;
68938;SDS011;59064;45.294;11.816;2024-02-26T01:46:41;24.70;;;17.90;;
68938;SDS011;59064;45.294;11.816;2024-02-26T01:49:08;24.80;;;17.80;;
68938;SDS011;59064;45.294;11.816;2024-02-26T01:51:38;25.50;;;17.60;;
68938;SDS011;59064;45.294;11.816;2024-02-26T01:54:06;20.30;;;14.90;;
68938;SDS011;59064;45.294;11.816;2024-02-26T01:56:33;23.50;;;18.00;;
68938;SDS011;59064;45.294;11.816;2024-02-26T01:59:00;29.90;;;20.50;;
68938;SDS011;59064;45.294;11.816;2024-02-26T02:01:27;22.30;;;16.80;;
68938;SDS011;59064;45.294;11.816;2024-02-26T02:03:55;27.00;;;18.90;;
68938;SDS011;59064;45.294;11.816;2024-02-26T02:06:23;26.10;;;20.10;;
68938;SDS011;59064;45.294;11.816;2024-02-26T02:08:50;26.10;;;18.90;;
68938;SDS011;59064;45.294;11.816;2024-02-26T02:11:17;23.10;;;17.90;;
68938;SDS011;59064;45.294;11.816;2024-02-26T02:13:43;26.30;;;20.10;;
68938;SDS011;59064;45.294;11.816;2024-02-26T02:16:09;26.10;;;18.90;;
68938;SDS011;59064;45.294;11.816;2024-02-26T02:18:36;25.60;;;17.50;;
68938;SDS011;59064;45.294;11.816;2024-02-26T02:21:02;25.10;;;18.70;;
68938;SDS011;59064;45.294;11.816;2024-02-26T02:23:30;28.50;;;20.70;;
68938;SDS011;59064;45.294;11.816;2024-02-26T02:25:56;24.00;;;18.80;;
68938;SDS011;59064;45.294;11.816;2024-02-26T02:28:24;26.20;;;19.20;;
68938;SDS011;59064;45.294;11.816;2024-02-26T02:30:53;22.30;;;15.40;;
68938;SDS011;59064;45.294;11.816;2024-02-26T02:33:23;22.80;;;16.90;;
68938;SDS011;59064;45.294;11.816;2024-02-26T02:35:51;24.70;;;17.30;;
68938;SDS011;59064;45.294;11.816;2024-02-26T02:38:20;24.30;;;18.70;;
68938;SDS011;59064;45.294;11.816;2024-02-26T02:40:48;23.90;;;17.40;;
68938;SDS011;59064;45.294;11.816;2024-02-26T02:43:14;19.00;;;13.90;;
68938;SDS011;59064;45.294;11.816;2024-02-26T02:45:41;22.10;;;13.50;;
68938;SDS011;59064;45.294;11.816;2024-02-26T02:48:08;23.40;;;16.00;;
68938;SDS011;59064;45.294;11.816;2024-02-26T02:50:38;23.40;;;16.40;;
68938;SDS011;59064;45.294;11.816;2024-02-26T02:53:04;21.70;;;16.20;;
68938;SDS011;59064;45.294;11.816;2024-02-26T02:55:31;25.50;;;18.30;;
68938;SDS011;59064;45.294;11.816;2024-02-26T02:57:58;22.20;;;15.50;;
68938;SDS011;59064;45.294;11.816;2024-02-26T03:00:24;24.40;;;17.60;;
68938;SDS011;59064;45.294;11.816;2024-02-26T03:02:50;25.70;;;18.20;;
68938;SDS011;59064;45.294;11.816;2024-02-26T03:05:17;23.40;;;16.50;;
68938;SDS011;59064;45.294;11.816;2024-02-26T03:07:42;25.10;;;18.80;;
68938;SDS011;59064;45.294;11.816;2024-02-26T03:10:08;24.80;;;17.90;;
68938;SDS011;59064;45.294;11.816;2024-02-26T03:12:35;24.30;;;17.10;;
68938;SDS011;59064;45.294;11.816;2024-02-26T03:15:01;22.00;;;15.50;;
68938;SDS011;59064;45.294;11.816;2024-02-26T03:17:29;26.70;;;18.80;;
68938;SDS011;59064;45.294;11.816;2024-02-26T03:19:55;22.10;;;17.00;;
68938;SDS011;59064;45.294;11.816;2024-02-26T03:22:21;22.90;;;15.90;;
68938;SDS011;59064;45.294;11.816;2024-02-26T03:24:48;26.70;;;18.70;;
68938;SDS011;59064;45.294;11.816;2024-02-26T03:27:15;26.00;;;19.00;;
68938;SDS011;59064;45.294;11.816;2024-02-26T03:29:41;24.30;;;18.40;;
68938;SDS011;59064;45.294;11.816;2024-02-26T03:32:08;24.80;;;18.50;;
68938;SDS011;59064;45.294;11.816;2024-02-26T03:34:35;22.70;;;17.50;;
68938;SDS011;59064;45.294;11.816;2024-02-26T03:37:04;26.00;;;18.80;;
68938;SDS011;59064;45.294;11.816;2024-02-26T03:39:33;22.00;;;17.20;;
68938;SDS011;59064;45.294;11.816;2024-02-26T03:42:01;22.70;;;18.20;;
68938;SDS011;59064;45.294;11.816;2024-02-26T03:44:29;24.40;;;18.00;;
68938;SDS011;59064;45.294;11.816;2024-02-26T03:46:56;21.90;;;15.50;;
68938;SDS011;59064;45.294;11.816;2024-02-26T03:49:25;24.60;;;17.40;;
68938;SDS011;59064;45.294;11.816;2024-02-26T03:51:51;24.10;;;16.60;;
68938;SDS011;59064;45.294;11.816;2024-02-26T03:54:17;26.60;;;18.90;;
68938;SDS011;59064;45.294;11.816;2024-02-26T03:56:42;26.90;;;18.80;;
68938;SDS011;59064;45.294;11.816;2024-02-26T03:59:08;26.20;;;19.60;;
68938;SDS011;59064;45.294;11.816;2024-02-26T04:01:34;25.40;;;19.20;;
68938;SDS011;59064;45.294;11.816;2024-02-26T04:03:59;26.10;;;19.50;;
68938;SDS011;59064;45.294;11.816;2024-02-26T04:06:25;23.30;;;16.70;;
68938;SDS011;59064;45.294;11.816;2024-02-26T04:08:50;27.10;;;19.60;;
68938;SDS011;59064;45.294;11.816;2024-02-26T04:11:17;29.60;;;19.70;;
68938;SDS011;59064;45.294;11.816;2024-02-26T04:13:44;26.30;;;19.30;;
68938;SDS011;59064;45.294;11.816;2024-02-26T04:16:16;25.60;;;18.90;;
68938;SDS011;59064;45.294;11.816;2024-02-26T04:18:43;25.70;;;18.30;;
68938;SDS011;59064;45.294;11.816;2024-02-26T04:21:10;23.90;;;17.60;;
68938;SDS011;59064;45.294;11.816;2024-02-26T04:23:37;26.60;;;17.50;;
68938;SDS011;59064;45.294;11.816;2024-02-26T04:26:04;23.50;;;17.60;;
68938;SDS011;59064;45.294;11.816;2024-02-26T04:28:31;22.40;;;15.50;;
68938;SDS011;59064;45.294;11.816;2024-02-26T04:30:57;28.40;;;18.30;;
68938;SDS011;59064;45.294;11.816;2024-02-26T04:33:26;25.60;;;18.90;;
68938;SDS011;59064;45.294;11.816;2024-02-26T04:35:53;23.00;;;17.00;;
68938;SDS011;59064;45.294;11.816;2024-02-26T04:38:20;27.80;;;18.70;;
68938;SDS011;59064;45.294;11.816;2024-02-26T04:40:47;25.00;;;19.00;;
68938;SDS011;59064;45.294;11.816;2024-02-26T04:43:13;23.70;;;17.30;;
68938;SDS011;59064;45.294;11.816;2024-02-26T04:45:39;26.00;;;19.10;;
68938;SDS011;59064;45.294;11.816;2024-02-26T04:48:05;26.00;;;18.30;;
68938;SDS011;59064;45.294;11.816;2024-02-26T04:50:31;24.20;;;17.60;;
68938;SDS011;59064;45.294;11.816;2024-02-26T04:52:56;27.60;;;19.50;;
68938;SDS011;59064;45.294;11.816;2024-02-26T04:55:23;25.10;;;18.20;;
68938;SDS011;59064;45.294;11.816;2024-02-26T04:57:50;23.70;;;17.50;;
68938;SDS011;59064;45.294;11.816;2024-02-26T05:00:16;21.20;;;14.70;;
68938;SDS011;59064;45.294;11.816;2024-02-26T05:02:43;21.80;;;16.70;;
68938;SDS011;59064;45.294;11.816;2024-02-26T05:05:09;21.10;;;14.70;;
68938;SDS011;59064;45.294;11.816;2024-02-26T05:07:41;22.80;;;16.20;;
68938;SDS011;59064;45.294;11.816;2024-02-26T05:10:08;25.10;;;18.10;;
68938;SDS011;59064;45.294;11.816;2024-02-26T05:12:34;27.40;;;19.50;;
68938;SDS011;59064;45.294;11.816;2024-02-26T05:15:01;30.00;;;19.50;;
68938;SDS011;59064;45.294;11.816;2024-02-26T05:17:27;27.80;;;18.70;;
68938;SDS011;59064;45.294;11.816;2024-02-26T05:19:53;28.50;;;19.90;;
68938;SDS011;59064;45.294;11.816;2024-02-26T05:22:19;27.00;;;19.50;;
68938;SDS011;59064;45.294;11.816;2024-02-26T05:24:45;25.90;;;18.80;;
68938;SDS011;59064;45.294;11.816;2024-02-26T05:27:10;25.00;;;18.20;;
68938;SDS011;59064;45.294;11.816;2024-02-26T05:29:37;22.10;;;17.40;;
68938;SDS011;59064;45.294;11.816;2024-02-26T05:32:03;25.30;;;17.20;;
68938;SDS011;59064;45.294;11.816;2024-02-26T05:34:31;25.90;;;18.60;;
68938;SDS011;59064;45.294;11.816;2024-02-26T05:36:58;29.30;;;20.30;;
68938;SDS011;59064;45.294;11.816;2024-02-26T05:39:24;27.90;;;19.60;;
68938;SDS011;59064;45.294;11.816;2024-02-26T05:41:53;26.10;;;19.10;;
68938;SDS011;59064;45.294;11.816;2024-02-26T05:44:18;28.20;;;21.20;;
68938;SDS011;59064;45.294;11.816;2024-02-26T05:46:44;24.50;;;16.80;;
68938;SDS011;59064;45.294;11.816;2024-02-26T05:49:09;22.60;;;15.90;;
68938;SDS011;59064;45.294;11.816;2024-02-26T05:51:35;23.10;;;16.20;;
68938;SDS011;59064;45.294;11.816;2024-02-26T05:54:01;26.10;;;19.80;;
68938;SDS011;59064;45.294;11.816;2024-02-26T05:56:27;27.20;;;19.90;;
68938;SDS011;59064;45.294;11.816;2024-02-26T05:58:52;27.70;;;19.80;;
68938;SDS011;59064;45.294;11.816;2024-02-26T06:01:19;25.00;;;18.10;;
68938;SDS011;59064;45.294;11.816;2024-02-26T06:03:45;26.70;;;19.20;;
68938;SDS011;59064;45.294;11.816;2024-02-26T06:06:11;27.40;;;19.20;;
68938;SDS011;59064;45.294;11.816;2024-02-26T06:08:38;26.50;;;17.00;;
68938;SDS011;59064;45.294;11.816;2024-02-26T06:11:07;27.60;;;19.10;;
68938;SDS011;59064;45.294;11.816;2024-02-26T06:13:33;27.80;;;17.60;;
68938;SDS011;59064;45.294;11.816;2024-02-26T06:15:59;28.70;;;20.50;;
68938;SDS011;59064;45.294;11.816;2024-02-26T06:18:25;26.60;;;19.00;;
68938;SDS011;59064;45.294;11.816;2024-02-26T06:20:51;27.40;;;18.40;;
68938;SDS011;59064;45.294;11.816;2024-02-26T06:23:16;25.40;;;17.90;;
68938;SDS011;59064;45.294;11.816;2024-02-26T06:25:42;30.90;;;21.40;;
68938;SDS011;59064;45.294;11.816;2024-02-26T06:28:08;26.20;;;18.50;;
68938;SDS011;59064;45.294;11.816;2024-02-26T06:30:34;26.60;;;18.80;;
68938;SDS011;59064;45.294;11.816;2024-02-26T06:33:00;25.80;;;17.70;;
68938;SDS011;59064;45.294;11.816;2024-02-26T06:35:26;25.90;;;17.80;;
68938;SDS011;59064;45.294;11.816;2024-02-26T06:37:52;25.70;;;19.30;;
68938;SDS011;59064;45.294;11.816;2024-02-26T06:40:21;27.50;;;20.50;;
68938;SDS011;59064;45.294;11.816;2024-02-26T06:42:47;26.80;;;18.70;;
68938;SDS011;59064;45.294;11.816;2024-02-26T06:45:12;26.90;;;19.20;;
68938;SDS011;59064;45.294;11.816;2024-02-26T06:47:38;22.50;;;16.50;;
68938;SDS011;59064;45.294;11.816;2024-02-26T06:50:04;26.50;;;18.10;;
68938;SDS011;59064;45.294;11.816;2024-02-26T06:52:30;21.90;;;15.60;;
68938;SDS011;59064;45.294;11.816;2024-02-26T06:54:55;24.40;;;17.30;;
68938;SDS011;59064;45.294;11.816;2024-02-26T06:57:21;20.90;;;14.10;;
68938;SDS011;59064;45.294;11.816;2024-02-26T06:59:47;17.40;;;12.10;;
68938;SDS011;59064;45.294;11.816;2024-02-26T07:02:13;22.80;;;13.40;;
68938;SDS011;59064;45.294;11.816;2024-02-26T07:04:39;22.60;;;16.20;;
68938;SDS011;59064;45.294;11.816;2024-02-26T07:07:07;20.10;;;15.20;;
68938;SDS011;59064;45.294;11.816;2024-02-26T07:09:33;20.70;;;14.80;;
68938;SDS011;59064;45.294;11.816;2024-02-26T07:11:59;22.60;;;15.70;;
68938;SDS011;59064;45.294;11.816;2024-02-26T07:14:24;22.90;;;16.80;;
68938;SDS011;59064;45.294;11.816;2024-02-26T07:16:50;19.30;;;15.30;;
68938;SDS011;59064;45.294;11.816;2024-02-26T07:19:16;24.00;;;17.20;;
68938;SDS011;59064;45.294;11.816;2024-02-26T07:21:42;19.00;;;12.60;;
68938;SDS011;59064;45.294;11.816;2024-02-26T07:24:08;18.60;;;12.00;;
68938;SDS011;59064;45.294;11.816;2024-02-26T07:26:34;22.20;;;16.80;;
68938;SDS011;59064;45.294;11.816;2024-02-26T07:28:59;22.60;;;16.80;;
68938;SDS011;59064;45.294;11.816;2024-02-26T07:31:26;22.30;;;15.00;;
68938;SDS011;59064;45.294;11.816;2024-02-26T07:33:52;25.50;;;17.70;;
68938;SDS011;59064;45.294;11.816;2024-02-26T07:36:17;18.70;;;13.90;;
68938;SDS011;59064;45.294;11.816;2024-02-26T07:38:43;23.30;;;15.10;;
68938;SDS011;59064;45.294;11.816;2024-02-26T07:41:08;21.40;;;15.40;;
68938;SDS011;59064;45.294;11.816;2024-02-26T07:43:34;29.00;;;17.70;;
68938;SDS011;59064;45.294;11.816;2024-02-26T07:46:00;22.50;;;15.90;;
68938;SDS011;59064;45.294;11.816;2024-02-26T07:48:25;20.50;;;16.10;;
68938;SDS011;59064;45.294;11.816;2024-02-26T07:50:51;24.30;;;16.90;;
68938;SDS011;59064;45.294;11.816;2024-02-26T07:53:17;23.60;;;18.30;;
68938;SDS011;59064;45.294;11.816;2024-02-26T07:55:43;26.50;;;17.70;;
68938;SDS011;59064;45.294;11.816;2024-02-26T07:58:08;22.30;;;17.00;;
68938;SDS011;59064;45.294;11.816;2024-02-26T08:00:34;22.70;;;15.80;;
68938;SDS011;59064;45.294;11.816;2024-02-26T08:03:00;19.60;;;15.00;;
68938;SDS011;59064;45.294;11.816;2024-02-26T08:05:25;25.60;;;18.10;;
68938;SDS011;59064;45.294;11.816;2024-02-26T08:07:51;25.00;;;18.00;;
68938;SDS011;59064;45.294;11.816;2024-02-26T08:10:16;25.50;;;18.30;;
68938;SDS011;59064;45.294;11.816;2024-02-26T08:12:42;25.90;;;16.60;;
68938;SDS011;59064;45.294;11.816;2024-02-26T08:15:08;25.90;;;18.50;;
68938;SDS011;59064;45.294;11.816;2024-02-26T08:17:33;24.30;;;15.20;;
68938;SDS011;59064;45.294;11.816;2024-02-26T08:20:01;25.40;;;17.90;;
68938;SDS011;59064;45.294;11.816;2024-02-26T08:22:27;23.60;;;15.80;;
68938;SDS011;59064;45.294;11.816;2024-02-26T08:24:53;26.60;;;18.10;;
68938;SDS011;59064;45.294;11.816;2024-02-26T08:27:18;25.00;;;16.10;;
68938;SDS011;59064;45.294;11.816;2024-02-26T08:29:44;27.00;;;16.30;;
68938;SDS011;59064;45.294;11.816;2024-02-26T08:32:09;27.80;;;17.30;;
68938;SDS011;59064;45.294;11.816;2024-02-26T08:34:36;18.80;;;13.30;;
68938;SDS011;59064;45.294;11.816;2024-02-26T08:37:02;20.50;;;12.90;;
68938;SDS011;59064;45.294;11.816;2024-02-26T08:39:27;23.70;;;16.30;;
68938;SDS011;59064;45.294;11.816;2024-02-26T08:41:53;28.80;;;18.10;;
68938;SDS011;59064;45.294;11.816;2024-02-26T08:44:19;29.20;;;18.10;;
68938;SDS011;59064;45.294;11.816;2024-02-26T08:46:44;26.60;;;17.90;;
68938;SDS011;59064;45.294;11.816;2024-02-26T08:49:11;28.20;;;17.70;;
68938;SDS011;59064;45.294;11.816;2024-02-26T08:51:40;19.80;;;11.00;;
68938;SDS011;59064;45.294;11.816;2024-02-26T08:54:08;26.00;;;16.20;;
68938;SDS011;59064;45.294;11.816;2024-02-26T08:56:33;23.90;;;15.60;;
68938;SDS011;59064;45.294;11.816;2024-02-26T08:58:59;28.50;;;16.30;;
68938;SDS011;59064;45.294;11.816;2024-02-26T09:01:31;27.70;;;17.50;;
68938;SDS011;59064;45.294;11.816;2024-02-26T09:03:58;24.10;;;15.10;;
68938;SDS011;59064;45.294;11.816;2024-02-26T09:06:24;28.50;;;17.80;;
68938;SDS011;59064;45.294;11.816;2024-02-26T09:08:49;25.40;;;15.60;;
68938;SDS011;59064;45.294;11.816;2024-02-26T09:11:15;31.70;;;16.90;;
68938;SDS011;59064;45.294;11.816;2024-02-26T09:13:41;23.30;;;16.00;;
68938;SDS011;59064;45.294;11.816;2024-02-26T09:16:07;22.70;;;15.20;;
68938;SDS011;59064;45.294;11.816;2024-02-26T09:18:33;25.50;;;15.80;;
68938;SDS011;59064;45.294;11.816;2024-02-26T09:20:58;25.20;;;16.10;;
68938;SDS011;59064;45.294;11.816;2024-02-26T09:23:24;26.50;;;15.80;;
68938;SDS011;59064;45.294;11.816;2024-02-26T09:25:50;25.80;;;17.20;;
68938;SDS011;59064;45.294;11.816;2024-02-26T09:28:16;26.90;;;17.20;;
68938;SDS011;59064;45.294;11.816;2024-02-26T09:30:43;22.80;;;13.40;;
68938;SDS011;59064;45.294;11.816;2024-02-26T09:33:09;24.50;;;16.50;;
68938;SDS011;59064;45.294;11.816;2024-02-26T09:35:36;23.30;;;13.50;;
68938;SDS011;59064;45.294;11.816;2024-02-26T09:38:02;23.10;;;13.60;;
68938;SDS011;59064;45.294;11.816;2024-02-26T09:40:28;21.00;;;12.60;;
68938;SDS011;59064;45.294;11.816;2024-02-26T09:42:58;17.70;;;10.50;;
68938;SDS011;59064;45.294;11.816;2024-02-26T09:45:25;21.50;;;12.30;;
68938;SDS011;59064;45.294;11.816;2024-02-26T09:47:53;21.60;;;13.10;;
68938;SDS011;59064;45.294;11.816;2024-02-26T09:50:21;24.50;;;15.20;;
68938;SDS011;59064;45.294;11.816;2024-02-26T09:52:48;24.60;;;14.70;;
68938;SDS011;59064;45.294;11.816;2024-02-26T09:55:14;20.40;;;13.70;;
68938;SDS011;59064;45.294;11.816;2024-02-26T09:57:44;18.80;;;13.80;;
68938;SDS011;59064;45.294;11.816;2024-02-26T10:00:20;21.10;;;13.60;;
68938;SDS011;59064;45.294;11.816;2024-02-26T10:02:47;16.70;;;11.50;;
68938;SDS011;59064;45.294;11.816;2024-02-26T10:05:17;14.80;;;9.80;;
68938;SDS011;59064;45.294;11.816;2024-02-26T10:07:46;14.60;;;8.30;;
68938;SDS011;59064;45.294;11.816;2024-02-26T10:10:13;14.80;;;9.60;;
68938;SDS011;59064;45.294;11.816;2024-02-26T10:12:39;17.80;;;11.10;;
68938;SDS011;59064;45.294;11.816;2024-02-26T10:15:05;16.10;;;9.10;;
68938;SDS011;59064;45.294;11.816;2024-02-26T10:17:31;21.80;;;11.60;;
68938;SDS011;59064;45.294;11.816;2024-02-26T10:20:16;16.50;;;9.90;;
68938;SDS011;59064;45.294;11.816;2024-02-26T10:22:43;15.10;;;10.30;;
68938;SDS011;59064;45.294;11.816;2024-02-26T10:25:09;15.10;;;9.60;;
68938;SDS011;59064;45.294;11.816;2024-02-26T10:27:35;11.30;;;8.00;;
68938;SDS011;59064;45.294;11.816;2024-02-26T10:30:04;16.10;;;9.80;;
68938;SDS011;59064;45.294;11.816;2024-02-26T10:32:39;19.30;;;9.40;;
68938;SDS011;59064;45.294;11.816;2024-02-26T10:35:08;13.40;;;6.60;;
68938;SDS011;59064;45.294;11.816;2024-02-26T10:37:33;18.70;;;10.80;;
68938;SDS011;59064;45.294;11.816;2024-02-26T10:39:59;8.90;;;5.10;;
68938;SDS011;59064;45.294;11.816;2024-02-26T10:42:25;12.30;;;7.10;;
68938;SDS011;59064;45.294;11.816;2024-02-26T10:44:51;14.00;;;7.90;;
68938;SDS011;59064;45.294;11.816;2024-02-26T10:47:17;13.30;;;8.80;;
68938;SDS011;59064;45.294;11.816;2024-02-26T10:49:46;16.80;;;7.30;;
68938;SDS011;59064;45.294;11.816;2024-02-26T10:52:15;12.90;;;6.10;;
68938;SDS011;59064;45.294;11.816;2024-02-26T10:54:47;10.20;;;5.20;;
68938;SDS011;59064;45.294;11.816;2024-02-26T10:57:15;13.50;;;6.40;;
68938;SDS011;59064;45.294;11.816;2024-02-26T10:59:43;10.10;;;5.00;;
68938;SDS011;59064;45.294;11.816;2024-02-26T11:02:10;8.80;;;5.30;;
68938;SDS011;59064;45.294;11.816;2024-02-26T11:04:38;9.50;;;5.90;;
68938;SDS011;59064;45.294;11.816;2024-02-26T11:07:04;6.60;;;4.20;;
68938;SDS011;59064;45.294;11.816;2024-02-26T11:09:33;10.30;;;4.40;;
68938;SDS011;59064;45.294;11.816;2024-02-26T11:12:01;11.70;;;5.20;;
68938;SDS011;59064;45.294;11.816;2024-02-26T11:14:27;8.40;;;4.10;;
68938;SDS011;59064;45.294;11.816;2024-02-26T11:16:55;13.00;;;7.20;;
68938;SDS011;59064;45.294;11.816;2024-02-26T11:19:22;12.90;;;7.00;;
68938;SDS011;59064;45.294;11.816;2024-02-26T11:21:50;9.90;;;5.10;;
68938;SDS011;59064;45.294;11.816;2024-02-26T11:24:18;14.80;;;5.70;;
68938;SDS011;59064;45.294;11.816;2024-02-26T11:26:49;7.30;;;3.80;;
68938;SDS011;59064;45.294;11.816;2024-02-26T11:29:24;10.50;;;6.30;;
68938;SDS011;59064;45.294;11.816;2024-02-26T11:31:52;8.40;;;4.10;;
68938;SDS011;59064;45.294;11.816;2024-02-26T11:34:18;10.50;;;4.40;;
68938;SDS011;59064;45.294;11.816;2024-02-26T11:36:44;12.70;;;6.90;;
68938;SDS011;59064;45.294;11.816;2024-02-26T11:39:13;10.60;;;5.50;;
68938;SDS011;59064;45.294;11.816;2024-02-26T11:41:42;11.40;;;6.30;;
68938;SDS011;59064;45.294;11.816;2024-02-26T11:44:08;6.60;;;4.10;;
68938;SDS011;59064;45.294;11.816;2024-02-26T11:46:40;9.60;;;5.20;;
68938;SDS011;59064;45.294;11.816;2024-02-26T11:51:54;10.80;;;5.70;;
68938;SDS011;59064;45.294;11.816;2024-02-26T12:00:11;12.80;;;7.50;;
68938;SDS011;59064;45.294;11.816;2024-02-26T12:05:21;11.60;;;6.50;;
68938;SDS011;59064;45.294;11.816;2024-02-26T12:07:53;12.50;;;7.50;;
68938;SDS011;59064;45.294;11.816;2024-02-26T12:12:54;12.10;;;7.30;;
68938;SDS011;59064;45.294;11.816;2024-02-26T12:15:23;10.30;;;5.80;;
68938;SDS011;59064;45.294;11.816;2024-02-26T12:17:49;13.90;;;6.50;;
68938;SDS011;59064;45.294;11.816;2024-02-26T12:20:16;13.10;;;6.50;;
68938;SDS011;59064;45.294;11.816;2024-02-26T12:22:46;14.20;;;9.20;;
68938;SDS011;59064;45.294;11.816;2024-02-26T12:25:13;13.40;;;6.60;;
68938;SDS011;59064;45.294;11.816;2024-02-26T12:27:39;14.20;;;8.00;;
68938;SDS011;59064;45.294;11.816;2024-02-26T12:30:08;9.70;;;4.50;;
68938;SDS011;59064;45.294;11.816;2024-02-26T12:32:34;10.10;;;4.60;;
68938;SDS011;59064;45.294;11.816;2024-02-26T12:35:01;11.40;;;5.30;;
68938;SDS011;59064;45.294;11.816;2024-02-26T12:37:27;10.20;;;5.80;;
68938;SDS011;59064;45.294;11.816;2024-02-26T12:39:53;9.80;;;4.00;;
68938;SDS011;59064;45.294;11.816;2024-02-26T12:42:19;9.60;;;4.90;;
68938;SDS011;59064;45.294;11.816;2024-02-26T12:44:45;10.40;;;4.90;;
68938;SDS011;59064;45.294;11.816;2024-02-26T12:47:11;9.20;;;4.30;;
68938;SDS011;59064;45.294;11.816;2024-02-26T12:49:42;8.30;;;3.40;;
68938;SDS011;59064;45.294;11.816;2024-02-26T12:52:09;6.20;;;3.60;;
68938;SDS011;59064;45.294;11.816;2024-02-26T12:54:36;7.50;;;3.60;;
68938;SDS011;59064;45.294;11.816;2024-02-26T12:57:04;6.80;;;3.90;;
68938;SDS011;59064;45.294;11.816;2024-02-26T12:59:32;7.20;;;2.60;;
68938;SDS011;59064;45.294;11.816;2024-02-26T13:02:00;6.70;;;2.80;;
68938;SDS011;59064;45.294;11.816;2024-02-26T13:04:27;5.70;;;3.40;;
68938;SDS011;59064;45.294;11.816;2024-02-26T13:06:55;10.50;;;3.70;;
68938;SDS011;59064;45.294;11.816;2024-02-26T13:09:26;6.70;;;2.50;;
68938;SDS011;59064;45.294;11.816;2024-02-26T13:11:55;6.50;;;2.20;;
68938;SDS011;59064;45.294;11.816;2024-02-26T13:14:21;5.90;;;2.50;;
68938;SDS011;59064;45.294;11.816;2024-02-26T13:16:57;8.90;;;3.70;;
68938;SDS011;59064;45.294;11.816;2024-02-26T13:19:23;5.70;;;2.60;;
68938;SDS011;59064;45.294;11.816;2024-02-26T13:21:50;8.30;;;3.60;;
68938;SDS011;59064;45.294;11.816;2024-02-26T13:24:15;7.60;;;3.00;;
68938;SDS011;59064;45.294;11.816;2024-02-26T13:26:43;5.60;;;3.20;;
68938;SDS011;59064;45.294;11.816;2024-02-26T13:29:08;5.90;;;2.70;;
68938;SDS011;59064;45.294;11.816;2024-02-26T13:31:40;5.60;;;2.40;;
68938;SDS011;59064;45.294;11.816;2024-02-26T13:34:05;7.80;;;4.30;;
68938;SDS011;59064;45.294;11.816;2024-02-26T13:36:31;4.50;;;2.40;;
68938;SDS011;59064;45.294;11.816;2024-02-26T13:38:57;6.00;;;2.80;;
68938;SDS011;59064;45.294;11.816;2024-02-26T13:41:22;7.10;;;3.20;;
68938;SDS011;59064;45.294;11.816;2024-02-26T13:43:48;6.10;;;2.70;;
68938;SDS011;59064;45.294;11.816;2024-02-26T13:46:15;5.30;;;2.80;;
68938;SDS011;59064;45.294;11.816;2024-02-26T13:48:42;5.90;;;2.80;;
68938;SDS011;59064;45.294;11.816;2024-02-26T13:51:08;5.20;;;2.90;;
68938;SDS011;59064;45.294;11.816;2024-02-26T13:53:34;6.60;;;2.80;;
68938;SDS011;59064;45.294;11.816;2024-02-26T13:56:00;8.70;;;3.70;;
68938;SDS011;59064;45.294;11.816;2024-02-26T13:58:26;5.80;;;2.70;;
68938;SDS011;59064;45.294;11.816;2024-02-26T14:00:55;2.90;;;1.00;;
68938;SDS011;59064;45.294;11.816;2024-02-26T14:03:22;2.40;;;1.00;;
68938;SDS011;59064;45.294;11.816;2024-02-26T14:05:48;3.30;;;1.50;;
68938;SDS011;59064;45.294;11.816;2024-02-26T14:08:16;10.00;;;2.70;;
68938;SDS011;59064;45.294;11.816;2024-02-26T14:10:43;8.70;;;2.60;;
68938;SDS011;59064;45.294;11.816;2024-02-26T14:13:10;6.10;;;2.10;;
68938;SDS011;59064;45.294;11.816;2024-02-26T14:15:37;3.30;;;1.10;;
68938;SDS011;59064;45.294;11.816;2024-02-26T14:18:06;2.10;;;0.90;;
68938;SDS011;59064;45.294;11.816;2024-02-26T14:20:35;3.40;;;1.40;;
68938;SDS011;59064;45.294;11.816;2024-02-26T14:23:02;2.90;;;1.40;;
68938;SDS011;59064;45.294;11.816;2024-02-26T14:25:28;3.10;;;1.40;;